Time;durP1;ratioP1;P1;durP2;ratioP2;P2;SDS_P1;SDS_P2;PMS_P1;PMS_P2;Temp;Humidity;BMP_temperature;BMP_pressure;BME280_temperature;BME280_humidity;BME280_pressure;Samples;Min_cycle;Max_cycle;Signal;HPM_P1;HPM_P2
2022/12/11 00:00:03;;;;;;;51.72;36.00;;;;;;;;;;5033789;28;20519;-68
2022/12/11 00:02:30;;;;;;;47.67;37.13;;;;;;;;;;5032054;28;20057;-68
2022/12/11 00:04:56;;;;;;;47.58;36.75;;;;;;;;;;5033488;28;20113;-68
2022/12/11 00:07:23;;;;;;;59.05;39.35;;;;;;;;;;5051391;28;20080;-67
2022/12/11 00:09:49;;;;;;;51.90;38.05;;;;;;;;;;5054477;28;20049;-67
2022/12/11 00:12:16;;;;;;;51.70;38.33;;;;;;;;;;5044861;28;20493;-67
2022/12/11 00:14:42;;;;;;;56.72;40.45;;;;;;;;;;5046777;28;20095;-67
2022/12/11 00:17:08;;;;;;;58.47;39.55;;;;;;;;;;5053678;28;20463;-67
2022/12/11 00:19:35;;;;;;;53.53;39.85;;;;;;;;;;5052818;28;20081;-67
2022/12/11 00:22:02;;;;;;;55.83;41.13;;;;;;;;;;5053953;28;20056;-67
2022/12/11 00:24:28;;;;;;;56.85;40.38;;;;;;;;;;5053783;28;20067;-67
2022/12/11 00:26:54;;;;;;;55.38;39.88;;;;;;;;;;5053947;28;20127;-67
2022/12/11 00:29:21;;;;;;;53.25;39.55;;;;;;;;;;5053625;28;20045;-67
2022/12/11 00:31:47;;;;;;;53.63;38.63;;;;;;;;;;5053938;28;20491;-67
2022/12/11 00:34:14;;;;;;;55.50;38.55;;;;;;;;;;5053695;28;20114;-67
2022/12/11 00:36:40;;;;;;;52.85;38.78;;;;;;;;;;5053561;28;20055;-67
2022/12/11 00:39:06;;;;;;;56.25;38.55;;;;;;;;;;5053512;28;20132;-67
2022/12/11 00:41:33;;;;;;;52.50;38.50;;;;;;;;;;5053360;28;20128;-67
2022/12/11 00:43:59;;;;;;;53.55;37.60;;;;;;;;;;5053542;28;20041;-67
2022/12/11 00:46:26;;;;;;;52.63;37.78;;;;;;;;;;5053457;28;20080;-67
2022/12/11 00:48:52;;;;;;;57.85;39.05;;;;;;;;;;5053573;28;20127;-67
2022/12/11 00:51:19;;;;;;;53.33;38.45;;;;;;;;;;5053091;28;20527;-67
2022/12/11 00:53:45;;;;;;;54.83;38.92;;;;;;;;;;5053159;28;20489;-67
2022/12/11 00:56:13;;;;;;;52.00;38.33;;;;;;;;;;5053132;28;20509;-67
2022/12/11 00:58:39;;;;;;;;;;;;;;;;;;5053928;28;20132;-67
2022/12/11 01:01:10;;;;;;;48.03;30.45;;;;;;;;;;5053258;28;20341;-67
2022/12/11 01:03:37;;;;;;;50.85;31.73;;;;;;;;;;5053067;28;20140;-67
2022/12/11 01:06:04;;;;;;;47.28;33.20;;;;;;;;;;5053052;28;20128;-67
2022/12/11 01:08:30;;;;;;;45.87;30.57;;;;;;;;;;5053164;28;20045;-67
2022/12/11 01:11:08;;;;;;;45.08;30.20;;;;;;;;;;5052995;28;20075;-67
2022/12/11 01:13:35;;;;;;;45.25;29.23;;;;;;;;;;5053137;28;20083;-67
2022/12/11 01:16:06;;;;;;;44.58;30.63;;;;;;;;;;5052639;28;20552;-67
2022/12/11 01:18:32;;;;;;;39.05;26.05;;;;;;;;;;5053034;28;20044;-67
2022/12/11 01:20:58;;;;;;;40.33;27.55;;;;;;;;;;5053048;28;20503;-67
2022/12/11 01:23:25;;;;;;;39.92;26.13;;;;;;;;;;5052800;28;20132;-67
2022/12/11 01:25:51;;;;;;;35.95;25.55;;;;;;;;;;5052712;28;20140;-67
2022/12/11 01:28:17;;;;;;;31.65;23.60;;;;;;;;;;5052937;28;20512;-67
2022/12/11 01:30:44;;;;;;;33.85;23.83;;;;;;;;;;5052570;28;20128;-67
2022/12/11 01:33:10;;;;;;;45.72;31.30;;;;;;;;;;5052535;28;20164;-67
2022/12/11 01:35:37;;;;;;;50.78;31.48;;;;;;;;;;5052604;28;20132;-67
2022/12/11 01:38:04;;;;;;;48.63;32.40;;;;;;;;;;5052617;28;20132;-67
2022/12/11 01:40:30;;;;;;;43.42;28.42;;;;;;;;;;5049182;28;20041;-67
2022/12/11 01:42:56;;;;;;;40.88;28.67;;;;;;;;;;5050796;28;20151;-67
2022/12/11 01:45:29;;;;;;;38.50;25.58;;;;;;;;;;5052133;28;20135;-67
2022/12/11 01:47:58;;;;;;;32.72;22.90;;;;;;;;;;5052168;28;20128;-67
2022/12/11 01:50:26;;;;;;;30.92;22.83;;;;;;;;;;5052149;28;20096;-67
2022/12/11 01:52:52;;;;;;;35.17;24.95;;;;;;;;;;5052281;28;20045;-67
2022/12/11 01:55:19;;;;;;;36.20;25.23;;;;;;;;;;5052043;28;20439;-67
2022/12/11 01:57:47;;;;;;;29.92;22.10;;;;;;;;;;5052122;28;20049;-67
2022/12/11 02:00:14;;;;;;;32.53;21.23;;;;;;;;;;5052037;28;20049;-67
2022/12/11 02:02:41;;;;;;;36.60;24.27;;;;;;;;;;5050342;28;20489;-67
2022/12/11 02:05:07;;;;;;;33.95;24.42;;;;;;;;;;5051880;28;20103;-67
2022/12/11 02:07:40;;;;;;;30.13;23.37;;;;;;;;;;5051990;28;20408;-67
2022/12/11 02:10:07;;;;;;;34.88;22.70;;;;;;;;;;5052181;28;20353;-67
2022/12/11 02:12:52;;;;;;;31.65;21.70;;;;;;;;;;5051796;28;20493;-67
2022/12/11 02:15:24;;;;;;;32.70;22.13;;;;;;;;;;5051731;28;20496;-67
2022/12/11 02:17:59;;;;;;;32.22;22.20;;;;;;;;;;5051778;28;20092;-67
2022/12/11 02:20:25;;;;;;;32.60;22.17;;;;;;;;;;5051690;28;20091;-67
2022/12/11 02:22:51;;;;;;;31.10;21.55;;;;;;;;;;5051624;28;20049;-67
2022/12/11 02:25:35;;;;;;;31.95;22.55;;;;;;;;;;5051442;28;20522;-67
2022/12/11 02:28:05;;;;;;;30.48;22.25;;;;;;;;;;5051560;28;20048;-67
2022/12/11 02:30:32;;;;;;;30.08;21.30;;;;;;;;;;5051835;28;20128;-67
2022/12/11 02:32:58;;;;;;;29.30;22.10;;;;;;;;;;5051695;28;20091;-67
2022/12/11 02:35:27;;;;;;;29.98;22.17;;;;;;;;;;5051370;28;20377;-67
2022/12/11 02:37:56;;;;;;;33.60;21.85;;;;;;;;;;5051820;28;20134;-67
2022/12/11 02:40:25;;;;;;;30.65;20.83;;;;;;;;;;5051653;28;20056;-67
2022/12/11 02:42:53;;;;;;;28.00;20.85;;;;;;;;;;5051773;28;20049;-67
2022/12/11 02:45:20;;;;;;;36.53;23.27;;;;;;;;;;5051640;28;20095;-67
2022/12/11 02:47:47;;;;;;;31.23;22.38;;;;;;;;;;5051765;28;20041;-67
2022/12/11 02:50:15;;;;;;;33.85;21.38;;;;;;;;;;5051479;28;20704;-67
2022/12/11 02:52:42;;;;;;;;;;;;;;;;;;5052046;28;20045;-67
2022/12/11 02:55:09;;;;;;;33.45;22.58;;;;;;;;;;5051361;28;20491;-67
2022/12/11 02:57:45;;;;;;;31.98;21.25;;;;;;;;;;5051625;28;20057;-67
2022/12/11 03:00:12;;;;;;;28.50;19.95;;;;;;;;;;5051624;28;20136;-67
2022/12/11 03:02:39;;;;;;;26.60;19.90;;;;;;;;;;5051203;28;21098;-67
2022/12/11 03:05:06;;;;;;;27.27;19.67;;;;;;;;;;5051424;28;20037;-66
2022/12/11 03:07:33;;;;;;;28.38;19.58;;;;;;;;;;5051591;28;20131;-67
2022/12/11 03:10:00;;;;;;;26.10;18.83;;;;;;;;;;5051358;28;20048;-67
2022/12/11 03:12:28;;;;;;;23.95;17.38;;;;;;;;;;5051498;28;20139;-67
2022/12/11 03:14:54;;;;;;;;;;;;;;;;;;5051877;28;20124;-67
2022/12/11 03:17:22;;;;;;;25.80;17.05;;;;;;;;;;5051560;28;20015;-67
2022/12/11 03:19:52;;;;;;;23.75;17.83;;;;;;;;;;5051346;28;20132;-67
2022/12/11 03:22:24;;;;;;;26.52;17.17;;;;;;;;;;5051569;28;20136;-67
2022/12/11 03:24:54;;;;;;;24.95;18.42;;;;;;;;;;5050942;28;20148;-67
2022/12/11 03:27:23;;;;;;;26.48;17.63;;;;;;;;;;5051124;28;20451;-67
2022/12/11 03:29:54;;;;;;;24.33;15.75;;;;;;;;;;5051217;28;20087;-67
2022/12/11 03:32:23;;;;;;;22.23;15.98;;;;;;;;;;5051041;28;20140;-67
2022/12/11 03:34:59;;;;;;;24.27;15.63;;;;;;;;;;5050932;28;20132;-67
2022/12/11 03:37:27;;;;;;;23.65;14.80;;;;;;;;;;5052157;28;20059;-67
2022/12/11 03:39:58;;;;;;;25.40;16.30;;;;;;;;;;5055006;28;20045;-67
2022/12/11 03:42:25;;;;;;;23.15;15.63;;;;;;;;;;5054732;28;20103;-67
2022/12/11 03:44:53;;;;;;;23.15;15.45;;;;;;;;;;5054816;28;20059;-67
2022/12/11 03:47:21;;;;;;;23.38;14.90;;;;;;;;;;5054696;28;20389;-67
2022/12/11 03:49:48;;;;;;;22.38;14.82;;;;;;;;;;5054575;28;20133;-67
2022/12/11 03:52:15;;;;;;;24.45;16.30;;;;;;;;;;5054504;28;20088;-67
2022/12/11 03:54:44;;;;;;;24.63;16.30;;;;;;;;;;5054620;28;20090;-67
2022/12/11 03:57:12;;;;;;;27.35;16.65;;;;;;;;;;5054686;28;20369;-67
2022/12/11 03:59:39;;;;;;;27.20;16.30;;;;;;;;;;5054290;28;20100;-67
2022/12/11 04:02:09;;;;;;;27.85;17.15;;;;;;;;;;5053295;28;20049;-67
2022/12/11 04:04:37;;;;;;;26.55;16.38;;;;;;;;;;5054471;28;20405;-67
2022/12/11 04:07:03;;;;;;;22.73;15.02;;;;;;;;;;5054491;28;20049;-67
2022/12/11 04:09:29;;;;;;;26.15;15.52;;;;;;;;;;5054050;28;20140;-67
2022/12/11 04:11:56;;;;;;;22.10;15.20;;;;;;;;;;5054353;28;20067;-67
2022/12/11 04:17:07;;;;;;;24.70;15.30;;;;;;;;;;5054193;28;20056;-67
2022/12/11 04:25:04;;;;;;;23.77;15.13;;;;;;;;;;5053819;28;20075;-67
2022/12/11 04:27:49;;;;;;;24.05;15.77;;;;;;;;;;5053939;28;20049;-67
2022/12/11 04:30:20;;;;;;;24.55;15.77;;;;;;;;;;5054100;28;20131;-67
2022/12/11 04:32:47;;;;;;;21.08;15.00;;;;;;;;;;5054082;28;20048;-67
2022/12/11 04:35:14;;;;;;;24.27;14.98;;;;;;;;;;5053598;28;20127;-67
2022/12/11 04:37:40;;;;;;;24.17;15.50;;;;;;;;;;5053646;28;20568;-67
2022/12/11 04:40:08;;;;;;;22.35;15.13;;;;;;;;;;5054065;28;20132;-67
2022/12/11 04:42:35;;;;;;;24.65;15.10;;;;;;;;;;5053555;28;20127;-67
2022/12/11 04:45:02;;;;;;;23.38;15.15;;;;;;;;;;5052191;28;20125;-67
2022/12/11 04:47:28;;;;;;;24.75;15.48;;;;;;;;;;5053682;28;20131;-67
2022/12/11 04:49:55;;;;;;;22.95;14.95;;;;;;;;;;5052771;28;20051;-67
2022/12/11 04:52:21;;;;;;;21.77;15.07;;;;;;;;;;5053373;28;20044;-67
2022/12/11 04:54:47;;;;;;;24.30;15.25;;;;;;;;;;5053618;28;20083;-67
2022/12/11 04:57:14;;;;;;;23.33;15.38;;;;;;;;;;5053178;28;20170;-67
2022/12/11 04:59:40;;;;;;;21.33;14.30;;;;;;;;;;5053511;28;20131;-67
2022/12/11 05:02:07;;;;;;;24.75;15.45;;;;;;;;;;5053098;28;20133;-67
2022/12/11 05:04:34;;;;;;;24.75;15.02;;;;;;;;;;5053016;28;20485;-67
2022/12/11 05:07:00;;;;;;;23.60;14.75;;;;;;;;;;5053499;28;20048;-67
2022/12/11 05:09:27;;;;;;;23.75;14.77;;;;;;;;;;5052902;28;20136;-67
2022/12/11 05:11:53;;;;;;;23.48;15.25;;;;;;;;;;5053223;28;20120;-67
2022/12/11 05:14:20;;;;;;;22.50;14.23;;;;;;;;;;5053236;28;20051;-67
2022/12/11 05:16:46;;;;;;;23.10;14.00;;;;;;;;;;5053080;28;20041;-67
2022/12/11 05:19:13;;;;;;;24.92;14.55;;;;;;;;;;5053016;28;20110;-67
2022/12/11 05:21:39;;;;;;;22.00;14.95;;;;;;;;;;5052767;28;20045;-67
2022/12/11 05:24:06;;;;;;;20.55;14.70;;;;;;;;;;5052655;28;20119;-67
2022/12/11 05:26:32;;;;;;;21.60;14.75;;;;;;;;;;5053109;28;20059;-67
2022/12/11 05:28:58;;;;;;;23.10;15.23;;;;;;;;;;5052688;28;20087;-67
2022/12/11 05:31:26;;;;;;;21.05;14.85;;;;;;;;;;5052796;28;20132;-67
2022/12/11 05:33:53;;;;;;;23.05;14.45;;;;;;;;;;5052964;28;20071;-67
2022/12/11 05:36:21;;;;;;;20.20;13.82;;;;;;;;;;5051252;28;20531;-67
2022/12/11 05:38:47;;;;;;;22.58;14.75;;;;;;;;;;5052668;28;20100;-67
2022/12/11 05:41:15;;;;;;;19.15;14.05;;;;;;;;;;5052736;28;20408;-67
2022/12/11 05:43:41;;;;;;;20.85;14.75;;;;;;;;;;5052322;28;20132;-67
2022/12/11 05:46:12;;;;;;;21.67;14.07;;;;;;;;;;5052314;28;20080;-67
2022/12/11 05:48:40;;;;;;;22.13;14.85;;;;;;;;;;5052776;28;20140;-67
2022/12/11 05:51:07;;;;;;;21.65;14.40;;;;;;;;;;5052315;28;20124;-67
2022/12/11 05:53:34;;;;;;;21.83;15.23;;;;;;;;;;5052131;28;20080;-67
2022/12/11 05:56:02;;;;;;;20.43;15.20;;;;;;;;;;5052239;28;20045;-67
2022/12/11 05:58:28;;;;;;;17.92;13.73;;;;;;;;;;5052192;28;20784;-67
2022/12/11 06:00:54;;;;;;;21.63;14.50;;;;;;;;;;5051158;28;20083;-67
2022/12/11 06:03:21;;;;;;;19.13;13.70;;;;;;;;;;5051935;28;20052;-67
2022/12/11 06:05:48;;;;;;;21.05;14.57;;;;;;;;;;5051725;28;20555;-67
2022/12/11 06:08:14;;;;;;;22.77;14.40;;;;;;;;;;5052081;28;20052;-67
2022/12/11 06:10:48;;;;;;;22.08;15.15;;;;;;;;;;5051905;28;20057;-67
2022/12/11 06:13:14;;;;;;;21.23;14.55;;;;;;;;;;5051836;28;20131;-67
2022/12/11 06:15:41;;;;;;;21.92;15.18;;;;;;;;;;5051910;28;20574;-67
2022/12/11 06:18:07;;;;;;;22.17;14.43;;;;;;;;;;5051752;28;20132;-67
2022/12/11 06:20:34;;;;;;;19.23;13.65;;;;;;;;;;5051766;28;20056;-67
2022/12/11 06:23:00;;;;;;;23.98;15.65;;;;;;;;;;5051693;28;20048;-67
2022/12/11 06:25:27;;;;;;;21.25;14.68;;;;;;;;;;5051940;28;20084;-67
2022/12/11 06:27:53;;;;;;;20.35;14.15;;;;;;;;;;5052009;28;20081;-67
2022/12/11 06:30:20;;;;;;;21.40;14.60;;;;;;;;;;5051562;28;20095;-67
2022/12/11 06:32:47;;;;;;;22.65;15.50;;;;;;;;;;5051803;28;20046;-67
2022/12/11 06:35:13;;;;;;;21.63;15.02;;;;;;;;;;5051459;28;20140;-67
2022/12/11 06:37:40;;;;;;;19.40;14.43;;;;;;;;;;5051726;28;20053;-67
2022/12/11 06:40:07;;;;;;;20.52;14.77;;;;;;;;;;5051784;28;20059;-67
2022/12/11 06:42:34;;;;;;;21.00;14.35;;;;;;;;;;5051674;28;20049;-67
2022/12/11 06:45:00;;;;;;;21.88;15.80;;;;;;;;;;5051287;28;20127;-67
2022/12/11 06:47:30;;;;;;;19.35;13.73;;;;;;;;;;5051692;28;20167;-67
2022/12/11 06:49:56;;;;;;;21.70;15.10;;;;;;;;;;5051438;28;20084;-67
2022/12/11 06:52:23;;;;;;;20.70;15.38;;;;;;;;;;5051459;28;20567;-67
2022/12/11 06:54:49;;;;;;;20.42;14.48;;;;;;;;;;5050592;28;20128;-67
2022/12/11 06:57:16;;;;;;;21.25;14.57;;;;;;;;;;5051477;28;20519;-67
2022/12/11 06:59:42;;;;;;;20.23;14.75;;;;;;;;;;5051409;28;20049;-67
2022/12/11 07:02:13;;;;;;;21.77;15.00;;;;;;;;;;5051234;28;20096;-67
2022/12/11 07:04:40;;;;;;;25.55;16.48;;;;;;;;;;5051434;28;20060;-67
2022/12/11 07:07:07;;;;;;;23.33;16.27;;;;;;;;;;5051295;28;20492;-67
2022/12/11 07:09:33;;;;;;;22.40;15.00;;;;;;;;;;5051544;28;20123;-67
2022/12/11 07:12:00;;;;;;;21.65;15.68;;;;;;;;;;5051779;28;20048;-67
2022/12/11 07:14:26;;;;;;;17.92;14.23;;;;;;;;;;5055429;28;20132;-67
2022/12/11 07:16:53;;;;;;;20.77;15.13;;;;;;;;;;5055154;28;20052;-67
2022/12/11 07:19:19;;;;;;;22.23;16.15;;;;;;;;;;5055153;28;20053;-67
2022/12/11 07:21:46;;;;;;;21.85;15.52;;;;;;;;;;5055068;28;20086;-67
2022/12/11 07:24:12;;;;;;;22.02;15.32;;;;;;;;;;5055018;28;20499;-67
2022/12/11 07:26:39;;;;;;;22.30;15.90;;;;;;;;;;5054925;28;20127;-67
2022/12/11 07:29:05;;;;;;;23.73;16.35;;;;;;;;;;5054915;28;20501;-67
2022/12/11 07:31:31;;;;;;;22.05;16.77;;;;;;;;;;5054796;28;20055;-67
2022/12/11 07:33:59;;;;;;;23.60;16.38;;;;;;;;;;5055118;28;20052;-67
2022/12/11 07:36:27;;;;;;;21.52;14.70;;;;;;;;;;5054796;28;20128;-67
2022/12/11 07:38:53;;;;;;;23.70;16.08;;;;;;;;;;5054811;28;20504;-67
2022/12/11 07:41:20;;;;;;;24.02;15.45;;;;;;;;;;5054779;28;20567;-67
2022/12/11 07:43:46;;;;;;;21.15;15.15;;;;;;;;;;5054677;28;20467;-67
2022/12/11 07:46:14;;;;;;;21.85;14.95;;;;;;;;;;5054538;28;20500;-67
2022/12/11 07:48:42;;;;;;;20.55;15.60;;;;;;;;;;5054513;28;20139;-67
2022/12/11 07:51:08;;;;;;;21.30;15.90;;;;;;;;;;5055025;28;20044;-67
2022/12/11 07:53:35;;;;;;;20.98;15.50;;;;;;;;;;5054385;28;20510;-67
2022/12/11 07:56:02;;;;;;;24.35;16.00;;;;;;;;;;5054761;28;20136;-66
2022/12/11 07:58:28;;;;;;;23.45;16.38;;;;;;;;;;5055151;28;20060;-67
2022/12/11 08:00:55;;;;;;;26.50;17.83;;;;;;;;;;5054268;28;20605;-67
2022/12/11 08:03:21;;;;;;;24.00;16.02;;;;;;;;;;5052777;28;20049;-67
2022/12/11 08:05:48;;;;;;;22.98;14.73;;;;;;;;;;5050852;28;20080;-67
2022/12/11 08:08:15;;;;;;;21.70;14.53;;;;;;;;;;5051080;28;20135;-67
2022/12/11 08:10:42;;;;;;;24.60;15.90;;;;;;;;;;5053715;28;20055;-67
2022/12/11 08:13:08;;;;;;;19.90;14.32;;;;;;;;;;5045772;28;20452;-67
2022/12/11 08:15:34;;;;;;;20.30;14.60;;;;;;;;;;5033601;28;20049;-67
2022/12/11 08:18:01;;;;;;;21.52;15.57;;;;;;;;;;5033676;28;20453;-67
2022/12/11 08:20:27;;;;;;;23.98;16.48;;;;;;;;;;5033752;28;20053;-68
2022/12/11 08:22:54;;;;;;;22.77;16.67;;;;;;;;;;5033791;28;20151;-67
2022/12/11 08:25:25;;;;;;;19.92;14.40;;;;;;;;;;5046406;28;20057;-67
2022/12/11 08:27:52;;;;;;;26.17;15.40;;;;;;;;;;5053338;28;20408;-65
2022/12/11 08:30:18;;;;;;;20.67;14.48;;;;;;;;;;5053291;28;20144;-67
2022/12/11 08:32:45;;;;;;;19.90;14.02;;;;;;;;;;5053527;28;20124;-67
2022/12/11 08:35:11;;;;;;;20.67;14.32;;;;;;;;;;5053261;28;20464;-67
2022/12/11 08:37:39;;;;;;;18.25;12.85;;;;;;;;;;5053196;28;20041;-68
2022/12/11 08:40:05;;;;;;;19.47;13.67;;;;;;;;;;5043200;28;20076;-67
2022/12/11 08:42:32;;;;;;;19.65;13.20;;;;;;;;;;5033483;28;20048;-67
2022/12/11 08:44:58;;;;;;;20.67;12.85;;;;;;;;;;5033764;28;20081;-67
2022/12/11 08:47:25;;;;;;;18.63;13.38;;;;;;;;;;5036477;28;20044;-67
2022/12/11 08:49:51;;;;;;;19.50;13.98;;;;;;;;;;5052963;28;20045;-68
2022/12/11 08:52:18;;;;;;;20.15;13.93;;;;;;;;;;5052805;28;20568;-67
2022/12/11 08:54:44;;;;;;;20.52;14.10;;;;;;;;;;5053068;28;20114;-67
2022/12/11 08:57:10;;;;;;;17.83;13.20;;;;;;;;;;5052751;28;20408;-67
2022/12/11 08:59:37;;;;;;;17.98;13.18;;;;;;;;;;5052751;28;20128;-67
2022/12/11 09:02:03;;;;;;;17.23;12.82;;;;;;;;;;5052636;28;20477;-67
2022/12/11 09:04:30;;;;;;;18.27;13.40;;;;;;;;;;5052596;28;20171;-66
2022/12/11 09:06:56;;;;;;;20.30;13.63;;;;;;;;;;5052471;28;20045;-67
2022/12/11 09:09:22;;;;;;;19.88;14.65;;;;;;;;;;5052302;28;20045;-67
2022/12/11 09:11:49;;;;;;;19.95;15.07;;;;;;;;;;5052799;28;20077;-66
2022/12/11 09:14:15;;;;;;;23.50;16.30;;;;;;;;;;5052749;28;20070;-67
2022/12/11 09:16:42;;;;;;;22.63;16.85;;;;;;;;;;5037360;28;20045;-67
2022/12/11 09:19:11;;;;;;;21.83;16.20;;;;;;;;;;5032424;28;20522;-67
2022/12/11 09:21:38;;;;;;;23.10;16.27;;;;;;;;;;5043017;28;20059;-67
2022/12/11 09:24:04;;;;;;;20.80;15.25;;;;;;;;;;5049959;28;20528;-67
2022/12/11 09:26:31;;;;;;;20.92;16.48;;;;;;;;;;5052276;28;20539;-67
2022/12/11 09:28:57;;;;;;;23.58;17.35;;;;;;;;;;5052289;28;20080;-66
2022/12/11 09:31:24;;;;;;;22.83;16.77;;;;;;;;;;5052612;28;20128;-66
2022/12/11 09:33:52;;;;;;;20.80;15.43;;;;;;;;;;5052492;28;20124;-67
2022/12/11 09:36:19;;;;;;;22.80;15.82;;;;;;;;;;5051770;28;20497;-67
2022/12/11 09:38:45;;;;;;;24.80;16.52;;;;;;;;;;5052224;28;20095;-67
2022/12/11 09:41:14;;;;;;;21.50;15.73;;;;;;;;;;5051892;28;20051;-67
2022/12/11 09:43:45;;;;;;;25.02;15.80;;;;;;;;;;5051866;28;20064;-67
2022/12/11 09:46:12;;;;;;;23.02;16.02;;;;;;;;;;5051844;28;20057;-67
2022/12/11 09:48:41;;;;;;;22.45;16.15;;;;;;;;;;5051893;28;20497;-67
2022/12/11 09:51:25;;;;;;;21.83;15.82;;;;;;;;;;5051973;28;20424;-67
2022/12/11 09:53:53;;;;;;;73.65;42.33;;;;;;;;;;5032037;28;20455;-67
2022/12/11 09:56:20;;;;;;;23.27;16.73;;;;;;;;;;5031126;28;20132;-67
2022/12/11 09:58:49;;;;;;;29.52;19.65;;;;;;;;;;5038403;28;20520;-67
2022/12/11 10:01:21;;;;;;;41.40;26.38;;;;;;;;;;5051575;28;20059;-69
2022/12/11 10:03:58;;;;;;;59.05;33.08;;;;;;;;;;5035347;28;20057;-66
2022/12/11 10:06:29;;;;;;;45.13;26.23;;;;;;;;;;5046573;28;20128;-67
2022/12/11 10:09:10;;;;;;;161.55;82.05;;;;;;;;;;5051677;28;20037;-66
2022/12/11 10:11:48;;;;;;;109.45;55.38;;;;;;;;;;5034700;28;20458;-67
2022/12/11 10:14:31;;;;;;;91.82;43.40;;;;;;;;;;5049558;28;20136;-66
2022/12/11 10:17:12;;;;;;;51.13;27.60;;;;;;;;;;5049215;28;20049;-67
2022/12/11 10:19:39;;;;;;;43.67;24.50;;;;;;;;;;5036630;28;20140;-67
2022/12/11 10:22:13;;;;;;;60.55;28.90;;;;;;;;;;5038593;28;20049;-67
2022/12/11 10:24:41;;;;;;;20.73;15.32;;;;;;;;;;5049898;28;20136;-67
2022/12/11 10:27:32;;;;;;;19.00;13.75;;;;;;;;;;5039155;28;20049;-67
2022/12/11 10:30:16;;;;;;;17.73;12.85;;;;;;;;;;5031782;28;20037;-67
2022/12/11 10:32:49;;;;;;;18.25;13.32;;;;;;;;;;5031624;28;20577;-67
2022/12/11 10:35:25;;;;;;;17.52;13.05;;;;;;;;;;5033591;28;20088;-67
2022/12/11 10:37:55;;;;;;;50.67;27.05;;;;;;;;;;5051901;28;20081;-67
2022/12/11 10:40:23;;;;;;;20.55;14.43;;;;;;;;;;5051534;28;20083;-67
2022/12/11 10:42:53;;;;;;;20.08;13.00;;;;;;;;;;5051857;28;20137;-67
2022/12/11 10:45:19;;;;;;;23.63;17.30;;;;;;;;;;5051407;28;20060;-67
2022/12/11 10:47:46;;;;;;;20.98;14.60;;;;;;;;;;5051031;28;20040;-67
2022/12/11 10:50:23;;;;;;;23.27;20.83;;;;;;;;;;5051718;28;20052;-67
2022/12/11 10:52:49;;;;;;;30.27;27.17;;;;;;;;;;5051728;28;20122;-67
2022/12/11 10:55:33;;;;;;;19.17;14.68;;;;;;;;;;5051189;28;20083;-67
2022/12/11 10:58:01;;;;;;;18.52;13.75;;;;;;;;;;5045886;28;20148;-67
2022/12/11 11:00:30;;;;;;;21.95;15.10;;;;;;;;;;5048892;28;20068;-66
2022/12/11 11:02:57;;;;;;;18.75;14.15;;;;;;;;;;5031201;28;20057;-67
2022/12/11 11:05:29;;;;;;;18.73;14.90;;;;;;;;;;5050350;28;20064;-67
2022/12/11 11:08:22;;;;;;;18.73;13.82;;;;;;;;;;5050689;28;20045;-67
2022/12/11 11:10:53;;;;;;;20.80;15.45;;;;;;;;;;5050944;28;20051;-67
2022/12/11 11:13:21;;;;;;;28.60;20.52;;;;;;;;;;5051339;28;20227;-67
2022/12/11 11:15:47;;;;;;;29.80;20.08;;;;;;;;;;5051279;28;20493;-67
2022/12/11 11:18:20;;;;;;;23.13;17.08;;;;;;;;;;5051531;28;20486;-67
2022/12/11 11:20:47;;;;;;;26.25;22.40;;;;;;;;;;5051261;28;20087;-67
2022/12/11 11:23:14;;;;;;;28.10;24.42;;;;;;;;;;5051524;28;20045;-67
2022/12/11 11:25:48;;;;;;;30.38;23.23;;;;;;;;;;5049871;28;20479;-67
2022/12/11 11:28:20;;;;;;;21.30;16.08;;;;;;;;;;5051072;28;20478;-67
2022/12/11 11:30:58;;;;;;;23.50;16.30;;;;;;;;;;5051121;28;20131;-67
2022/12/11 11:33:24;;;;;;;22.10;15.45;;;;;;;;;;5051006;28;20041;-67
2022/12/11 11:35:55;;;;;;;21.02;16.40;;;;;;;;;;5050992;28;20049;-67
2022/12/11 11:38:23;;;;;;;23.35;17.05;;;;;;;;;;5051171;28;20135;-67
2022/12/11 11:40:56;;;;;;;21.63;16.67;;;;;;;;;;5051287;28;20152;-67
2022/12/11 11:43:37;;;;;;;22.50;17.40;;;;;;;;;;5050986;28;20049;-67
2022/12/11 11:46:10;;;;;;;24.45;21.08;;;;;;;;;;5050953;28;20480;-67
2022/12/11 11:48:55;;;;;;;25.83;21.25;;;;;;;;;;5050861;28;20496;-67
2022/12/11 11:51:33;;;;;;;23.15;19.08;;;;;;;;;;5050978;28;20052;-68
2022/12/11 11:54:01;;;;;;;22.90;18.33;;;;;;;;;;5050827;28;20041;-67
2022/12/11 11:56:33;;;;;;;27.67;21.45;;;;;;;;;;5040676;28;20588;-67
2022/12/11 11:59:18;;;;;;;22.15;17.38;;;;;;;;;;5044497;28;20489;-67
2022/12/11 12:01:45;;;;;;;23.08;17.48;;;;;;;;;;5054398;28;20140;-67
2022/12/11 12:04:12;;;;;;;18.98;16.55;;;;;;;;;;5054136;28;20500;-67
2022/12/11 12:06:47;;;;;;;20.63;17.35;;;;;;;;;;5054008;28;20496;-72
2022/12/11 12:09:33;;;;;;;22.20;17.88;;;;;;;;;;5054017;28;20121;-68
2022/12/11 12:12:18;;;;;;;27.83;22.67;;;;;;;;;;5054296;28;20071;-67
2022/12/11 12:14:56;;;;;;;26.10;19.42;;;;;;;;;;5050720;28;20488;-68
2022/12/11 12:17:43;;;;;;;28.80;22.70;;;;;;;;;;5053217;28;20535;-68
2022/12/11 12:20:19;;;;;;;61.05;43.60;;;;;;;;;;5053297;28;20472;-68
2022/12/11 12:22:59;;;;;;;35.40;26.75;;;;;;;;;;5053622;28;20463;-68
2022/12/11 12:25:28;;;;;;;34.75;27.58;;;;;;;;;;5053767;28;20483;-68
2022/12/11 12:27:58;;;;;;;27.65;24.10;;;;;;;;;;5053876;28;20059;-68
2022/12/11 12:30:25;;;;;;;23.77;20.13;;;;;;;;;;5054071;28;20127;-68
2022/12/11 12:33:11;;;;;;;23.73;19.30;;;;;;;;;;5053834;28;20055;-68
2022/12/11 12:35:43;;;;;;;25.25;18.80;;;;;;;;;;5053691;28;20072;-68
2022/12/11 12:38:21;;;;;;;24.77;19.67;;;;;;;;;;5053812;28;20483;-69
2022/12/11 12:40:51;;;;;;;24.90;19.58;;;;;;;;;;5053823;28;20053;-69
2022/12/11 12:43:33;;;;;;;73.63;44.33;;;;;;;;;;5053662;28;20077;-69
2022/12/11 12:45:59;;;;;;;41.15;26.67;;;;;;;;;;5053560;28;20170;-69
2022/12/11 12:48:26;;;;;;;29.23;21.08;;;;;;;;;;5053441;28;20114;-69
2022/12/11 12:50:54;;;;;;;28.02;19.45;;;;;;;;;;5053730;28;20055;-69
2022/12/11 12:53:25;;;;;;;21.05;16.38;;;;;;;;;;5053656;28;20081;-67
2022/12/11 12:55:52;;;;;;;24.77;17.20;;;;;;;;;;5053349;28;20493;-67
2022/12/11 12:58:26;;;;;;;25.52;18.95;;;;;;;;;;5052259;28;20160;-67
2022/12/11 13:00:53;;;;;;;39.88;30.17;;;;;;;;;;5053219;28;20148;-67
2022/12/11 13:03:28;;;;;;;56.87;37.87;;;;;;;;;;5053517;28;20140;-67
2022/12/11 13:05:59;;;;;;;38.10;27.23;;;;;;;;;;5053595;28;20051;-67
2022/12/11 13:08:40;;;;;;;25.80;19.65;;;;;;;;;;5053131;28;20541;-67
2022/12/11 13:11:10;;;;;;;25.55;18.40;;;;;;;;;;5052446;28;20063;-67
2022/12/11 13:13:42;;;;;;;24.48;17.42;;;;;;;;;;5053480;28;20091;-67
2022/12/11 13:16:14;;;;;;;26.98;17.90;;;;;;;;;;5053290;28;20415;-66
2022/12/11 13:18:42;;;;;;;23.73;17.92;;;;;;;;;;5053002;28;20052;-67
2022/12/11 13:21:24;;;;;;;28.08;20.52;;;;;;;;;;5052947;28;20164;-67
2022/12/11 13:23:50;;;;;;;27.35;19.27;;;;;;;;;;5053185;28;20053;-67
2022/12/11 13:26:27;;;;;;;33.03;23.17;;;;;;;;;;5052552;28;20084;-67
2022/12/11 13:28:54;;;;;;;32.72;22.33;;;;;;;;;;5052737;28;20041;-67
2022/12/11 13:31:21;;;;;;;33.97;24.27;;;;;;;;;;5052929;28;20055;-67
2022/12/11 13:33:49;;;;;;;26.85;19.20;;;;;;;;;;5052631;28;20544;-66
2022/12/11 13:36:18;;;;;;;26.75;16.88;;;;;;;;;;5037707;28;20452;-67
2022/12/11 13:38:57;;;;;;;26.10;17.25;;;;;;;;;;5040399;28;20489;-67
2022/12/11 13:41:24;;;;;;;34.55;24.15;;;;;;;;;;5048896;28;20135;-66
2022/12/11 13:43:51;;;;;;;28.55;21.52;;;;;;;;;;5041939;28;20572;-66
2022/12/11 13:46:26;;;;;;;34.37;20.63;;;;;;;;;;5052300;28;20568;-67
2022/12/11 13:48:56;;;;;;;36.70;25.90;;;;;;;;;;5052587;28;20494;-67
2022/12/11 13:51:23;;;;;;;31.90;20.58;;;;;;;;;;5052589;28;20131;-67
2022/12/11 13:54:05;;;;;;;35.72;22.02;;;;;;;;;;5052075;28;20499;-67
2022/12/11 13:56:31;;;;;;;31.10;20.67;;;;;;;;;;5052025;28;20136;-67
2022/12/11 13:58:58;;;;;;;33.05;20.80;;;;;;;;;;5052105;28;20079;-66
2022/12/11 14:01:32;;;;;;;32.08;20.13;;;;;;;;;;5037964;28;20041;-66
2022/12/11 14:04:11;;;;;;;37.60;23.05;;;;;;;;;;5052188;28;20056;-67
2022/12/11 14:06:37;;;;;;;58.47;39.05;;;;;;;;;;5052064;28;20083;-67
2022/12/11 14:09:05;;;;;;;46.97;29.88;;;;;;;;;;5052032;28;20055;-66
2022/12/11 14:11:36;;;;;;;46.38;29.90;;;;;;;;;;5051257;28;20068;-67
2022/12/11 14:14:04;;;;;;;62.92;41.50;;;;;;;;;;5052268;28;20187;-67
2022/12/11 14:16:31;;;;;;;81.18;49.03;;;;;;;;;;5052154;28;20693;-67
2022/12/11 14:19:03;;;;;;;82.85;50.60;;;;;;;;;;5046338;28;20084;-67
2022/12/11 14:21:29;;;;;;;58.88;36.55;;;;;;;;;;5042600;28;20052;-67
2022/12/11 14:23:57;;;;;;;48.40;29.00;;;;;;;;;;5051227;28;20049;-67
2022/12/11 14:26:24;;;;;;;59.22;35.67;;;;;;;;;;5051684;28;20065;-67
2022/12/11 14:28:51;;;;;;;50.42;31.50;;;;;;;;;;5051909;28;20080;-66
2022/12/11 14:31:25;;;;;;;70.38;48.83;;;;;;;;;;5051609;28;20084;-67
2022/12/11 14:33:53;;;;;;;64.32;42.47;;;;;;;;;;5051520;28;20052;-67
2022/12/11 14:36:21;;;;;;;70.28;42.45;;;;;;;;;;5051461;28;20128;-67